• Join FlightAware (Why Join?)
  • Login
  • US Flag 
08:43PM EST


 

Airport Tracker/Info


-or-


 

Live Flight TrackerFlight Track Log ✈ SWA2857 ✈ 03-May-2013 ✈ KBOS - KMKE

Flight Track Log - Related Links

Times and Time Zones

All times are in EDT time to prevent confusion due to time zone crossing. See the SWA2857 flight status page for this flight to view local times or setup timezone preferences in your user account.

Time Position Orientation Groundspeed Altitude Reporting Facility
EDT Latitude Longitude Course Direction KTS MPH feet Rate Location/Type
08:06PM 42.3667 -70.9833 75° East 148 170 1,100  Level KA90
08:07PM 42.3833 -70.9000 75° East 186 214 4,600 2,760 Climbing KA90
08:08PM 42.3833 -70.8167 90° East 246 283 7,300 3,240 Climbing KA90
08:10PM 42.4653 -70.7683 24° Northeast 294 338 11,900 3,600 Climbing Boston Center
08:11PM 42.5542 -70.8703 320° Northwest 261 300 17,200 3,660 Climbing Boston Center
08:12PM 42.6225 -70.9897 308° West 330 380 20,700 3,420 Climbing Boston Center
08:13PM 42.6864 -71.1014 308° West 359 413 24,100 3,120 Climbing Boston Center
08:14PM 42.7522 -71.2186 307° West 380 437 27,000 2,520 Climbing Boston Center
08:15PM 42.7956 -71.3622 292° West 393 452 29,200 2,160 Climbing Boston Center
08:16PM 42.8114 -71.5286 277° West 417 480 31,400 2,460 Climbing Boston Center
08:17PM 42.8231 -71.6928 276° West 435 501 34,200 2,220 Climbing Boston Center
08:18PM 42.8342 -71.8228 277° West 435 501 35,900 1,860 Climbing Boston Center
08:19PM 42.8519 -72.0153 277° West 440 506 38,000 1,800 Climbing Boston Center
08:20PM 42.8669 -72.1767 277° West 440 506 39,600 960 Climbing Boston Center
08:21PM 42.8881 -72.3467 280° West 445 512 40,000 180 Climbing Boston Center
08:22PM 42.9028 -72.5053 277° West 445 512 40,000  Level Boston Center
08:23PM 42.9108 -72.6781 274° West 439 505 40,000  Level Boston Center
08:24PM 42.9228 -72.8428 276° West 439 505 40,000  Level Boston Center
08:25PM 42.9347 -72.9733 277° West 439 505 40,000  Level Boston Center
08:26PM 42.9525 -73.1550 278° West 445 512 40,000  Level Boston Center
08:27PM 42.9681 -73.3139 278° West 440 506 40,000  Level Boston Center
08:28PM 42.9750 -73.4928 273° West 434 499 40,000  Level Boston Center
08:29PM 42.9900 -73.6522 277° West 434 499 40,000  Level Boston Center
08:30PM 43.0047 -73.8169 277° West 434 499 40,000  Level Boston Center
08:31PM 43.0131 -73.9819 274° West 434 499 40,000  Level Boston Center
08:32PM 43.0275 -74.1469 277° West 439 505 40,000  Level Boston Center
08:33PM 43.0394 -74.3092 276° West 439 505 40,000  Level Boston Center
08:34PM 43.0511 -74.4744 276° West 445 512 40,000  Level Boston Center
08:35PM 43.0642 -74.6681 275° West 445 512 40,000  Level Boston Center
08:36PM 43.0750 -74.8619 274° West 440 506 40,000  Level Boston Center
08:37PM 43.0586 -75.0317 263° West 440 506 40,000  Level Boston Center
08:38PM 43.0428 -75.1761 262° West 440 506 40,000  Level Boston Center
08:39PM 43.0242 -75.3372 261° West 440 506 40,000  Level Boston Center
08:40PM 43.0033 -75.5036 260° West 446 513 40,000  Level Boston Center
08:41PM 42.9864 -75.6617 262° West 446 513 40,000  Level Boston Center
08:42PM 42.9669 -75.8256 261° West 441 507 40,000  Level Boston Center
08:44PM 42.9303 -76.1108 260° West 448 516 40,000  Level Cleveland Center
08:45PM 42.9092 -76.2742 260° West 448 516 40,000  Level Cleveland Center
08:46PM 42.8881 -76.4372 260° West 448 516 40,000  Level Cleveland Center
08:47PM 42.8686 -76.5942 260° West 438 504 40,000  Level Cleveland Center
08:48PM 42.8469 -76.7542 260° West 432 497 40,000  Level Cleveland Center
08:49PM 42.8272 -76.9142 261° West 432 497 40,000  Level Cleveland Center
08:50PM 42.8069 -77.0708 260° West 432 497 40,000  Level Cleveland Center
08:51PM 42.7867 -77.2278 260° West 432 497 40,000  Level Cleveland Center
08:52PM 42.7661 -77.3817 260° West 432 497 40,000  Level Cleveland Center
08:53PM 42.7433 -77.5439 259° West 432 497 40,000  Level Cleveland Center
08:54PM 42.7225 -77.7033 260° West 432 497 40,000  Level Cleveland Center
08:55PM 42.7011 -77.8625 260° West 426 490 40,000  Level Cleveland Center
08:56PM 42.6778 -78.0217 259° West 431 496 40,000  Level Cleveland Center
08:57PM 42.6542 -78.1778 258° West 431 496 40,000  Level Cleveland Center
08:58PM 42.6322 -78.3367 259° West 431 496 40,000  Level Cleveland Center
08:59PM 42.6103 -78.4956 259° West 431 496 40,000  Level Cleveland Center
09:00PM 42.5858 -78.6542 258° West 431 496 40,000  Level Cleveland Center
09:01PM 42.5614 -78.8158 258° West 431 496 40,000  Level Cleveland Center
09:02PM 42.5386 -78.9742 259° West 431 496 40,000  Level Cleveland Center
09:03PM 42.5136 -79.1381 258° West 431 496 40,000  Level Cleveland Center
09:04PM 42.4928 -79.2992 260° West 436 502 40,000  Level Cleveland Center
09:05PM 42.5028 -79.4622 275° West 427 491 40,000  Level Cleveland Center
09:06PM 42.5103 -79.6200 274° West 427 491 40,000  Level Cleveland Center
09:07PM 42.5178 -79.7831 274° West 427 491 40,000  Level Cleveland Center
09:08PM 42.5253 -79.9436 274° West 432 497 40,000  Level Cleveland Center
09:09PM 42.5300 -80.0903 273° West 432 497 40,000  Level Cleveland Center
09:10PM 42.5347 -80.2564 272° West 437 503 40,000  Level Cleveland Center
09:11PM 42.5414 -80.4142 273° West 445 512 40,000  Level Cleveland Center
09:12PM 42.5497 -80.5831 274° West 439 505 40,000  Level Cleveland Center
09:13PM 42.5558 -80.7381 273° West 433 498 40,000  Level Cleveland Center
09:14PM 42.5639 -80.9017 274° West 433 498 40,000  Level Cleveland Center
09:15PM 42.5675 -81.0569 272° West 428 493 40,000  Level Cleveland Center
09:16PM 42.5731 -81.2203 273° West 428 493 40,000  Level Cleveland Center
09:17PM 42.5783 -81.3953 272° West 428 493 40,000  Level Cleveland Center
09:18PM 42.6000 -81.5506 281° West 423 487 40,000  Level Cleveland Center
09:19PM 42.6278 -81.7092 283° West 428 493 40,000  Level Cleveland Center
09:20PM 42.6572 -81.8678 284° West 433 498 40,000  Level Cleveland Center
09:21PM 42.6825 -82.0264 282° West 433 498 40,000  Level Cleveland Center
09:22PM 42.7094 -82.1853 283° West 433 498 40,000  Level Cleveland Center
09:23PM 42.7364 -82.3414 283° West 433 498 40,000  Level Cleveland Center
09:24PM 42.7631 -82.4978 283° West 433 498 40,000  Level Cleveland Center
09:25PM 42.7897 -82.6542 283° West 433 498 40,000  Level Cleveland Center
09:26PM 42.8158 -82.8106 283° West 433 498 40,000  Level Cleveland Center
09:27PM 42.8419 -82.9703 283° West 433 498 40,000  Level Cleveland Center
09:28PM 42.8678 -83.1269 283° West 433 498 40,000  Level Cleveland Center
09:29PM 42.8933 -83.2867 282° West 433 498 40,000  Level Cleveland Center
09:30PM 42.9186 -83.4467 282° West 433 498 40,000  Level Cleveland Center
09:31PM 42.9439 -83.6039 282° West 433 498 40,000  Level Cleveland Center
09:32PM 42.9686 -83.7639 282° West 433 498 40,000  Level Cleveland Center
09:33PM 42.9828 -83.9264 277° West 433 498 40,000  Level Cleveland Center
09:34PM 42.9969 -84.0864 277° West 427 491 40,000  Level Cleveland Center
09:35PM 43.0147 -84.2492 279° West 427 491 40,000  Level Cleveland Center
09:37PM 43.0369 -84.4786 278° West 432 497 40,000  Level Chicago Center
09:38PM 43.0508 -84.6400 277° West 432 497 40,000  Level Chicago Center
09:39PM 43.0653 -84.8011 277° West 427 491 40,000  Level Chicago Center
09:40PM 43.0808 -84.9622 278° West 428 493 40,000  Level Chicago Center
09:41PM 43.0900 -85.1572 274° West 431 496 40,000 -300 Level Chicago Center
09:42PM 43.0958 -85.3206 273° West 431 496 39,500 -1,320 Descending Chicago Center
09:43PM 43.1025 -85.4803 273° West 424 488 37,300 -1,560 Descending Chicago Center
09:44PM 43.1086 -85.6458 273° West 436 502 36,400 -900 Descending Chicago Center
09:45PM 43.1158 -85.8119 273° West 441 507 35,500 -1,260 Descending Chicago Center
09:46PM 43.1211 -85.9806 273° West 455 524 33,800 -2,940 Descending Chicago Center
09:47PM 43.1283 -86.1864 273° West 465 535 29,500 -3,900 Descending Chicago Center
09:48PM 43.1328 -86.3572 272° West 453 521 25,900 -3,540 Descending Chicago Center
09:49PM 43.1386 -86.5311 273° West 457 526 22,200 -3,180 Descending Chicago Center
09:50PM 43.1436 -86.6994 272° West 448 516 19,400 -2,700 Descending Chicago Center
09:52PM 43.1519 -87.0308 272° West 389 448 14,000 -2,280 Descending Chicago Center
09:53PM 43.1472 -87.1631 267° West 352 405 12,500 -1,800 Descending Chicago Center
09:54PM 43.1219 -87.2811 254° West 328 377 10,400 -1,260 Descending Chicago Center
09:55PM 43.0936 -87.3919 251° West 315 362 10,000 -240 Descending Chicago Center
09:56PM 43.0672 -87.5003 252° West 300 345 10,000 -960 Level Chicago Center
09:57PM 43.0364 -87.6242 251° West 295 339 8,100 -1,800 Descending Chicago Center
09:58PM 43.0125 -87.7297 253° West 289 333 6,400 -1,620 Descending Chicago Center
09:59PM 42.9642 -87.7978 226° Southwest 275 316 4,800 -840 Descending Chicago Center
10:00PM 42.9061 -87.8006 182° South 223 257 4,700 -840 Descending Chicago Center
10:01PM 42.8758 -87.8253 211° Southwest 156 180 3,200 -1,380 Descending Chicago Center
10:02PM 42.8717 -87.8850 265° West 158 182 1,900 -900 Descending Chicago Center
10:03PM 42.9097 -87.9036 340° North 142 163 1,400 -540 Descending Chicago Center
10:05PM 42.9333 -87.8833 324° Northwest  Level FlightAware Approximate
10:12PM 42.9469 -87.8971 324° Northwest  Level Estimated